sensor_id;sensor_type;location;lat;lon;timestamp;temperature;humidity
14521;DHT22;7347;50.844;4.490;2023-03-16T08:53:26;12.30;99.90
14521;DHT22;7347;50.844;4.490;2023-03-16T08:56:00;12.50;99.90
14521;DHT22;7347;50.844;4.490;2023-03-16T08:58:27;12.60;99.90
14521;DHT22;7347;50.844;4.490;2023-03-16T09:00:56;12.90;99.90
14521;DHT22;7347;50.844;4.490;2023-03-16T09:03:24;12.90;99.90
14521;DHT22;7347;50.844;4.490;2023-03-16T09:05:51;12.90;99.90
14521;DHT22;7347;50.844;4.490;2023-03-16T09:08:18;12.90;99.90
14521;DHT22;7347;50.844;4.490;2023-03-16T09:10:46;12.50;99.90
14521;DHT22;7347;50.844;4.490;2023-03-16T09:13:14;12.40;99.90
14521;DHT22;7347;50.844;4.490;2023-03-16T09:15:40;12.30;99.90
14521;DHT22;7347;50.844;4.490;2023-03-16T09:18:07;12.20;99.90
14521;DHT22;7347;50.844;4.490;2023-03-16T09:20:34;12.20;99.90
14521;DHT22;7347;50.844;4.490;2023-03-16T09:23:01;12.30;99.90
14521;DHT22;7347;50.844;4.490;2023-03-16T09:25:29;12.20;99.90
14521;DHT22;7347;50.844;4.490;2023-03-16T09:27:58;12.00;99.90
14521;DHT22;7347;50.844;4.490;2023-03-16T09:30:25;12.20;99.90
14521;DHT22;7347;50.844;4.490;2023-03-16T09:32:52;12.40;99.90
14521;DHT22;7347;50.844;4.490;2023-03-16T09:35:19;12.30;99.90
14521;DHT22;7347;50.844;4.490;2023-03-16T09:37:46;12.40;99.90
14521;DHT22;7347;50.844;4.490;2023-03-16T09:40:23;12.40;99.90
14521;DHT22;7347;50.844;4.490;2023-03-16T09:43:09;12.40;99.90
14521;DHT22;7347;50.844;4.490;2023-03-16T09:45:43;12.30;99.90
14521;DHT22;7347;50.844;4.490;2023-03-16T09:48:14;12.40;99.90
14521;DHT22;7347;50.844;4.490;2023-03-16T09:50:43;12.50;99.90
14521;DHT22;7347;50.844;4.490;2023-03-16T09:53:17;12.60;99.90
14521;DHT22;7347;50.844;4.490;2023-03-16T09:55:51;12.70;99.90
14521;DHT22;7347;50.844;4.490;2023-03-16T09:58:21;12.80;99.90
14521;DHT22;7347;50.844;4.490;2023-03-16T10:00:54;12.90;99.90
14521;DHT22;7347;50.844;4.490;2023-03-16T10:03:35;12.80;99.90
14521;DHT22;7347;50.844;4.490;2023-03-16T10:06:07;12.70;99.90
14521;DHT22;7347;50.844;4.490;2023-03-16T10:08:38;12.50;99.90
14521;DHT22;7347;50.844;4.490;2023-03-16T10:11:25;12.60;99.90
14521;DHT22;7347;50.844;4.490;2023-03-16T10:13:59;12.70;99.90
14521;DHT22;7347;50.844;4.490;2023-03-16T10:16:32;12.80;99.90
14521;DHT22;7347;50.844;4.490;2023-03-16T10:19:06;13.00;99.90
14521;DHT22;7347;50.844;4.490;2023-03-16T10:21:38;12.90;99.90
14521;DHT22;7347;50.844;4.490;2023-03-16T10:24:14;12.70;99.20
14521;DHT22;7347;50.844;4.490;2023-03-16T10:26:43;12.50;99.90
14521;DHT22;7347;50.844;4.490;2023-03-16T10:29:15;12.50;99.90
14521;DHT22;7347;50.844;4.490;2023-03-16T10:31:42;12.30;99.50
14521;DHT22;7347;50.844;4.490;2023-03-16T10:34:09;12.30;99.90
14521;DHT22;7347;50.844;4.490;2023-03-16T10:36:38;12.40;99.90
14521;DHT22;7347;50.844;4.490;2023-03-16T10:39:09;12.40;99.90
14521;DHT22;7347;50.844;4.490;2023-03-16T10:41:38;12.50;99.90
14521;DHT22;7347;50.844;4.490;2023-03-16T10:44:10;12.60;99.90
14521;DHT22;7347;50.844;4.490;2023-03-16T10:46:40;12.70;99.80
14521;DHT22;7347;50.844;4.490;2023-03-16T10:49:19;12.80;99.50
14521;DHT22;7347;50.844;4.490;2023-03-16T10:51:47;13.00;99.90
14521;DHT22;7347;50.844;4.490;2023-03-16T10:54:22;13.10;99.90
14521;DHT22;7347;50.844;4.490;2023-03-16T10:56:50;13.10;99.40
14521;DHT22;7347;50.844;4.490;2023-03-16T10:59:28;13.20;99.10
14521;DHT22;7347;50.844;4.490;2023-03-16T11:01:57;13.20;99.60
14521;DHT22;7347;50.844;4.490;2023-03-16T11:04:29;13.40;98.90
14521;DHT22;7347;50.844;4.490;2023-03-16T11:06:57;13.60;99.10
14521;DHT22;7347;50.844;4.490;2023-03-16T11:09:29;13.70;99.10
14521;DHT22;7347;50.844;4.490;2023-03-16T11:11:58;13.80;99.00
14521;DHT22;7347;50.844;4.490;2023-03-16T11:14:26;13.80;99.60
14521;DHT22;7347;50.844;4.490;2023-03-16T11:17:01;14.00;99.70
14521;DHT22;7347;50.844;4.490;2023-03-16T11:19:30;14.10;99.40
14521;DHT22;7347;50.844;4.490;2023-03-16T11:22:01;14.30;98.70
14521;DHT22;7347;50.844;4.490;2023-03-16T11:24:33;14.10;98.60
14521;DHT22;7347;50.844;4.490;2023-03-16T11:27:03;14.20;98.30
14521;DHT22;7347;50.844;4.490;2023-03-16T11:29:43;14.10;97.60
14521;DHT22;7347;50.844;4.490;2023-03-16T11:32:18;13.90;97.90
14521;DHT22;7347;50.844;4.490;2023-03-16T11:34:46;13.80;97.60
14521;DHT22;7347;50.844;4.490;2023-03-16T11:37:19;13.60;97.90
14521;DHT22;7347;50.844;4.490;2023-03-16T11:39:55;13.50;98.20
14521;DHT22;7347;50.844;4.490;2023-03-16T11:42:29;13.70;99.20
14521;DHT22;7347;50.844;4.490;2023-03-16T11:45:02;13.90;98.60
14521;DHT22;7347;50.844;4.490;2023-03-16T11:47:52;13.90;98.70
14521;DHT22;7347;50.844;4.490;2023-03-16T11:50:26;14.00;98.40
14521;DHT22;7347;50.844;4.490;2023-03-16T11:52:59;13.90;98.10
14521;DHT22;7347;50.844;4.490;2023-03-16T11:55:35;14.00;98.30
14521;DHT22;7347;50.844;4.490;2023-03-16T11:58:16;14.00;98.00
14521;DHT22;7347;50.844;4.490;2023-03-16T12:00:50;13.90;97.60
14521;DHT22;7347;50.844;4.490;2023-03-16T12:03:34;13.90;98.20
14521;DHT22;7347;50.844;4.490;2023-03-16T12:06:16;13.90;98.50
14521;DHT22;7347;50.844;4.490;2023-03-16T12:09:07;13.90;98.10
14521;DHT22;7347;50.844;4.490;2023-03-16T12:11:40;13.90;98.30
14521;DHT22;7347;50.844;4.490;2023-03-16T12:14:15;14.00;97.90
14521;DHT22;7347;50.844;4.490;2023-03-16T12:16:47;14.00;98.40
14521;DHT22;7347;50.844;4.490;2023-03-16T12:19:21;14.00;98.20
14521;DHT22;7347;50.844;4.490;2023-03-16T12:21:58;14.10;98.30
14521;DHT22;7347;50.844;4.490;2023-03-16T12:24:30;14.10;98.40
14521;DHT22;7347;50.844;4.490;2023-03-16T12:27:00;14.20;98.60
14521;DHT22;7347;50.844;4.490;2023-03-16T12:29:32;14.40;99.10
14521;DHT22;7347;50.844;4.490;2023-03-16T12:32:07;14.60;98.60
14521;DHT22;7347;50.844;4.490;2023-03-16T12:34:41;14.70;98.60
14521;DHT22;7347;50.844;4.490;2023-03-16T12:37:18;14.40;97.90
14521;DHT22;7347;50.844;4.490;2023-03-16T12:39:57;14.30;97.40
14521;DHT22;7347;50.844;4.490;2023-03-16T12:42:52;14.30;97.90
14521;DHT22;7347;50.844;4.490;2023-03-16T12:45:28;14.30;97.60
14521;DHT22;7347;50.844;4.490;2023-03-16T12:48:02;14.20;97.10
14521;DHT22;7347;50.844;4.490;2023-03-16T12:50:31;14.20;97.30
14521;DHT22;7347;50.844;4.490;2023-03-16T12:52:58;14.30;97.20
14521;DHT22;7347;50.844;4.490;2023-03-16T12:55:38;14.30;96.90
14521;DHT22;7347;50.844;4.490;2023-03-16T12:58:07;14.30;97.10
14521;DHT22;7347;50.844;4.490;2023-03-16T13:00:37;14.30;96.80
14521;DHT22;7347;50.844;4.490;2023-03-16T13:03:11;14.40;97.60
14521;DHT22;7347;50.844;4.490;2023-03-16T13:05:45;14.40;97.00
14521;DHT22;7347;50.844;4.490;2023-03-16T13:08:17;14.40;96.50
14521;DHT22;7347;50.844;4.490;2023-03-16T13:10:59;14.40;96.80
14521;DHT22;7347;50.844;4.490;2023-03-16T13:13:26;14.40;97.00
14521;DHT22;7347;50.844;4.490;2023-03-16T13:16:03;14.30;96.50
14521;DHT22;7347;50.844;4.490;2023-03-16T13:18:34;14.40;97.40
14521;DHT22;7347;50.844;4.490;2023-03-16T13:21:16;14.60;97.20
14521;DHT22;7347;50.844;4.490;2023-03-16T13:23:53;14.70;97.30
14521;DHT22;7347;50.844;4.490;2023-03-16T13:26:33;14.80;96.80
14521;DHT22;7347;50.844;4.490;2023-03-16T13:29:09;14.70;96.10
14521;DHT22;7347;50.844;4.490;2023-03-16T13:31:41;14.70;96.60
14521;DHT22;7347;50.844;4.490;2023-03-16T13:34:13;14.70;97.00
14521;DHT22;7347;50.844;4.490;2023-03-16T13:36:43;14.60;96.50
14521;DHT22;7347;50.844;4.490;2023-03-16T13:39:15;14.60;97.10
14521;DHT22;7347;50.844;4.490;2023-03-16T13:41:53;14.70;96.80
14521;DHT22;7347;50.844;4.490;2023-03-16T13:44:21;14.70;96.90
14521;DHT22;7347;50.844;4.490;2023-03-16T13:46:48;14.70;96.30
14521;DHT22;7347;50.844;4.490;2023-03-16T13:49:15;14.60;96.30
14521;DHT22;7347;50.844;4.490;2023-03-16T13:51:44;14.60;96.70
14521;DHT22;7347;50.844;4.490;2023-03-16T13:54:20;14.60;96.10
14521;DHT22;7347;50.844;4.490;2023-03-16T13:56:48;14.60;96.70
14521;DHT22;7347;50.844;4.490;2023-03-16T13:59:16;14.70;96.00
14521;DHT22;7347;50.844;4.490;2023-03-16T14:01:44;14.70;96.50
14521;DHT22;7347;50.844;4.490;2023-03-16T14:04:13;14.70;95.80
14521;DHT22;7347;50.844;4.490;2023-03-16T14:06:52;14.80;96.20
14521;DHT22;7347;50.844;4.490;2023-03-16T14:09:23;14.80;96.30
14521;DHT22;7347;50.844;4.490;2023-03-16T14:11:52;14.90;96.10
14521;DHT22;7347;50.844;4.490;2023-03-16T14:14:28;14.90;96.00
14521;DHT22;7347;50.844;4.490;2023-03-16T14:17:00;15.00;96.40
14521;DHT22;7347;50.844;4.490;2023-03-16T14:19:33;14.90;96.50
14521;DHT22;7347;50.844;4.490;2023-03-16T14:22:12;14.80;96.30
14521;DHT22;7347;50.844;4.490;2023-03-16T14:24:39;14.80;96.20
14521;DHT22;7347;50.844;4.490;2023-03-16T14:27:24;14.80;96.60
14521;DHT22;7347;50.844;4.490;2023-03-16T14:29:56;14.80;96.40
14521;DHT22;7347;50.844;4.490;2023-03-16T14:32:25;14.80;96.50
14521;DHT22;7347;50.844;4.490;2023-03-16T14:35:01;14.80;96.60
14521;DHT22;7347;50.844;4.490;2023-03-16T14:37:36;14.80;97.20
14521;DHT22;7347;50.844;4.490;2023-03-16T14:40:06;14.90;96.90
14521;DHT22;7347;50.844;4.490;2023-03-16T14:42:34;15.00;96.50
14521;DHT22;7347;50.844;4.490;2023-03-16T14:45:02;15.10;96.90
14521;DHT22;7347;50.844;4.490;2023-03-16T14:47:37;15.10;96.70
14521;DHT22;7347;50.844;4.490;2023-03-16T14:50:07;15.30;96.90
14521;DHT22;7347;50.844;4.490;2023-03-16T14:52:36;15.30;96.00
14521;DHT22;7347;50.844;4.490;2023-03-16T14:55:11;15.20;96.30
14521;DHT22;7347;50.844;4.490;2023-03-16T14:57:39;15.20;96.60
14521;DHT22;7347;50.844;4.490;2023-03-16T15:00:07;15.40;96.90
14521;DHT22;7347;50.844;4.490;2023-03-16T15:02:36;15.60;96.20
14521;DHT22;7347;50.844;4.490;2023-03-16T15:05:05;15.70;95.30
14521;DHT22;7347;50.844;4.490;2023-03-16T15:07:36;15.70;95.10
14521;DHT22;7347;50.844;4.490;2023-03-16T15:10:06;15.90;95.50
14521;DHT22;7347;50.844;4.490;2023-03-16T15:12:38;16.00;95.10
14521;DHT22;7347;50.844;4.490;2023-03-16T15:15:10;15.90;96.00
14521;DHT22;7347;50.844;4.490;2023-03-16T15:17:43;15.90;95.30
14521;DHT22;7347;50.844;4.490;2023-03-16T15:20:12;15.80;95.20
14521;DHT22;7347;50.844;4.490;2023-03-16T15:22:41;15.50;95.20
14521;DHT22;7347;50.844;4.490;2023-03-16T15:25:22;15.40;95.70
14521;DHT22;7347;50.844;4.490;2023-03-16T15:27:51;15.40;95.90
14521;DHT22;7347;50.844;4.490;2023-03-16T15:30:19;15.30;96.20
14521;DHT22;7347;50.844;4.490;2023-03-16T15:32:46;15.40;96.50
14521;DHT22;7347;50.844;4.490;2023-03-16T15:35:14;15.30;96.20
14521;DHT22;7347;50.844;4.490;2023-03-16T15:37:42;15.30;95.80
14521;DHT22;7347;50.844;4.490;2023-03-16T15:40:18;15.20;96.30
14521;DHT22;7347;50.844;4.490;2023-03-16T15:42:46;15.20;96.90
14521;DHT22;7347;50.844;4.490;2023-03-16T15:45:14;15.20;96.30
14521;DHT22;7347;50.844;4.490;2023-03-16T15:47:43;15.30;95.30
14521;DHT22;7347;50.844;4.490;2023-03-16T15:50:10;15.10;95.50
14521;DHT22;7347;50.844;4.490;2023-03-16T15:52:39;14.90;95.40
14521;DHT22;7347;50.844;4.490;2023-03-16T15:55:16;14.80;95.60
14521;DHT22;7347;50.844;4.490;2023-03-16T15:57:45;14.80;96.10
14521;DHT22;7347;50.844;4.490;2023-03-16T16:00:28;14.70;95.70
14521;DHT22;7347;50.844;4.490;2023-03-16T16:02:56;14.60;95.20
14521;DHT22;7347;50.844;4.490;2023-03-16T16:05:23;14.60;95.60
14521;DHT22;7347;50.844;4.490;2023-03-16T16:07:51;14.60;95.70
14521;DHT22;7347;50.844;4.490;2023-03-16T16:10:19;14.70;95.90
14521;DHT22;7347;50.844;4.490;2023-03-16T16:12:48;14.70;95.40
14521;DHT22;7347;50.844;4.490;2023-03-16T16:15:21;14.70;96.10
14521;DHT22;7347;50.844;4.490;2023-03-16T16:17:50;14.70;95.80
14521;DHT22;7347;50.844;4.490;2023-03-16T16:20:19;14.70;95.60
14521;DHT22;7347;50.844;4.490;2023-03-16T16:22:47;14.80;95.70
14521;DHT22;7347;50.844;4.490;2023-03-16T16:25:15;14.80;95.50
14521;DHT22;7347;50.844;4.490;2023-03-16T16:27:43;14.80;94.80
14521;DHT22;7347;50.844;4.490;2023-03-16T16:30:19;14.70;95.60
14521;DHT22;7347;50.844;4.490;2023-03-16T16:32:47;14.70;95.90
14521;DHT22;7347;50.844;4.490;2023-03-16T16:35:15;14.60;95.90
14521;DHT22;7347;50.844;4.490;2023-03-16T16:37:42;14.70;96.20
14521;DHT22;7347;50.844;4.490;2023-03-16T16:40:14;14.60;96.50
14521;DHT22;7347;50.844;4.490;2023-03-16T16:42:43;14.50;96.50
14521;DHT22;7347;50.844;4.490;2023-03-16T16:45:15;14.50;96.80
14521;DHT22;7347;50.844;4.490;2023-03-16T16:47:44;14.40;97.20
14521;DHT22;7347;50.844;4.490;2023-03-16T16:50:16;14.30;97.20
14521;DHT22;7347;50.844;4.490;2023-03-16T16:52:45;14.30;97.10
14521;DHT22;7347;50.844;4.490;2023-03-16T16:55:12;14.30;98.20
14521;DHT22;7347;50.844;4.490;2023-03-16T16:57:39;14.20;98.00
14521;DHT22;7347;50.844;4.490;2023-03-16T17:00:15;14.20;98.50
14521;DHT22;7347;50.844;4.490;2023-03-16T17:02:44;14.10;98.10
14521;DHT22;7347;50.844;4.490;2023-03-16T17:05:16;14.00;98.00
14521;DHT22;7347;50.844;4.490;2023-03-16T17:07:44;13.90;98.70
14521;DHT22;7347;50.844;4.490;2023-03-16T17:10:14;13.80;98.70
14521;DHT22;7347;50.844;4.490;2023-03-16T17:12:42;13.80;98.80
14521;DHT22;7347;50.844;4.490;2023-03-16T17:15:20;13.60;98.80
14521;DHT22;7347;50.844;4.490;2023-03-16T17:17:51;13.70;98.80
14521;DHT22;7347;50.844;4.490;2023-03-16T17:20:20;13.80;98.40
14521;DHT22;7347;50.844;4.490;2023-03-16T17:22:50;13.80;98.70
14521;DHT22;7347;50.844;4.490;2023-03-16T17:25:19;13.80;98.70
14521;DHT22;7347;50.844;4.490;2023-03-16T17:27:49;13.70;99.10
14521;DHT22;7347;50.844;4.490;2023-03-16T17:30:25;13.60;99.20
14521;DHT22;7347;50.844;4.490;2023-03-16T17:32:54;13.50;99.50
14521;DHT22;7347;50.844;4.490;2023-03-16T17:35:22;13.50;99.50
14521;DHT22;7347;50.844;4.490;2023-03-16T17:37:49;13.40;99.50
14521;DHT22;7347;50.844;4.490;2023-03-16T17:40:17;13.40;99.30
14521;DHT22;7347;50.844;4.490;2023-03-16T17:42:45;13.30;99.60
14521;DHT22;7347;50.844;4.490;2023-03-16T17:45:17;13.10;99.40
14521;DHT22;7347;50.844;4.490;2023-03-16T17:47:47;13.00;99.90
14521;DHT22;7347;50.844;4.490;2023-03-16T17:50:18;13.00;99.90
14521;DHT22;7347;50.844;4.490;2023-03-16T17:52:45;12.90;99.80
14521;DHT22;7347;50.844;4.490;2023-03-16T17:55:13;12.90;99.90
14521;DHT22;7347;50.844;4.490;2023-03-16T17:57:46;12.80;99.90
14521;DHT22;7347;50.844;4.490;2023-03-16T18:00:24;12.80;99.90
14521;DHT22;7347;50.844;4.490;2023-03-16T18:02:54;12.70;99.90
14521;DHT22;7347;50.844;4.490;2023-03-16T18:05:24;12.70;99.90
14521;DHT22;7347;50.844;4.490;2023-03-16T18:07:53;12.80;99.90
14521;DHT22;7347;50.844;4.490;2023-03-16T18:10:22;12.70;99.90
14521;DHT22;7347;50.844;4.490;2023-03-16T18:12:55;12.70;99.90
14521;DHT22;7347;50.844;4.490;2023-03-16T18:15:26;12.70;99.90
14521;DHT22;7347;50.844;4.490;2023-03-16T18:17:56;12.70;99.90
14521;DHT22;7347;50.844;4.490;2023-03-16T18:20:25;12.50;99.90
14521;DHT22;7347;50.844;4.490;2023-03-16T18:22:56;12.40;99.90
14521;DHT22;7347;50.844;4.490;2023-03-16T18:25:31;12.30;99.90
14521;DHT22;7347;50.844;4.490;2023-03-16T18:27:58;12.20;99.90
14521;DHT22;7347;50.844;4.490;2023-03-16T18:30:27;12.20;99.90
14521;DHT22;7347;50.844;4.490;2023-03-16T18:32:55;12.10;99.90
14521;DHT22;7347;50.844;4.490;2023-03-16T18:35:24;12.20;99.90
14521;DHT22;7347;50.844;4.490;2023-03-16T18:37:51;12.20;99.90
14521;DHT22;7347;50.844;4.490;2023-03-16T18:40:19;12.20;99.90
14521;DHT22;7347;50.844;4.490;2023-03-16T18:42:46;12.10;99.90
14521;DHT22;7347;50.844;4.490;2023-03-16T18:45:14;12.10;99.90
14521;DHT22;7347;50.844;4.490;2023-03-16T18:47:45;12.10;99.90
14521;DHT22;7347;50.844;4.490;2023-03-16T18:50:23;12.10;99.90
14521;DHT22;7347;50.844;4.490;2023-03-16T18:52:53;12.10;99.90
14521;DHT22;7347;50.844;4.490;2023-03-16T18:55:23;12.00;99.90
14521;DHT22;7347;50.844;4.490;2023-03-16T18:57:51;11.90;99.90
14521;DHT22;7347;50.844;4.490;2023-03-16T19:00:22;11.90;99.90
14521;DHT22;7347;50.844;4.490;2023-03-16T19:02:53;11.80;99.90
14521;DHT22;7347;50.844;4.490;2023-03-16T19:05:27;11.80;99.90
14521;DHT22;7347;50.844;4.490;2023-03-16T19:07:55;11.70;99.90
14521;DHT22;7347;50.844;4.490;2023-03-16T19:10:25;11.80;99.90
14521;DHT22;7347;50.844;4.490;2023-03-16T19:12:52;11.80;99.90
14521;DHT22;7347;50.844;4.490;2023-03-16T19:15:22;11.70;99.90
14521;DHT22;7347;50.844;4.490;2023-03-16T19:17:49;11.70;99.90
14521;DHT22;7347;50.844;4.490;2023-03-16T19:20:19;11.60;99.90
14521;DHT22;7347;50.844;4.490;2023-03-16T19:22:48;11.60;99.90
14521;DHT22;7347;50.844;4.490;2023-03-16T19:25:19;11.60;99.90
14521;DHT22;7347;50.844;4.490;2023-03-16T19:27:48;11.60;99.90
14521;DHT22;7347;50.844;4.490;2023-03-16T19:30:24;11.60;99.90
14521;DHT22;7347;50.844;4.490;2023-03-16T19:32:52;11.60;99.90
14521;DHT22;7347;50.844;4.490;2023-03-16T19:35:21;11.60;99.90
14521;DHT22;7347;50.844;4.490;2023-03-16T19:37:50;11.60;99.90
14521;DHT22;7347;50.844;4.490;2023-03-16T19:40:18;11.60;99.90
14521;DHT22;7347;50.844;4.490;2023-03-16T19:42:46;11.60;99.90
14521;DHT22;7347;50.844;4.490;2023-03-16T19:45:17;11.60;99.90
14521;DHT22;7347;50.844;4.490;2023-03-16T19:47:45;11.60;99.90
14521;DHT22;7347;50.844;4.490;2023-03-16T19:50:14;11.60;99.90
14521;DHT22;7347;50.844;4.490;2023-03-16T19:52:41;11.60;99.90
14521;DHT22;7347;50.844;4.490;2023-03-16T19:55:13;11.60;99.90
14521;DHT22;7347;50.844;4.490;2023-03-16T19:57:40;11.70;99.90
14521;DHT22;7347;50.844;4.490;2023-03-16T20:00:16;11.70;99.90
14521;DHT22;7347;50.844;4.490;2023-03-16T20:02:43;11.70;99.90
14521;DHT22;7347;50.844;4.490;2023-03-16T20:05:15;11.80;99.90
14521;DHT22;7347;50.844;4.490;2023-03-16T20:07:43;11.80;99.90
14521;DHT22;7347;50.844;4.490;2023-03-16T20:10:16;11.70;99.90
14521;DHT22;7347;50.844;4.490;2023-03-16T20:12:44;11.70;99.90
14521;DHT22;7347;50.844;4.490;2023-03-16T20:15:16;11.70;99.90
14521;DHT22;7347;50.844;4.490;2023-03-16T20:17:44;11.60;99.90
14521;DHT22;7347;50.844;4.490;2023-03-16T20:20:23;11.60;99.90
14521;DHT22;7347;50.844;4.490;2023-03-16T20:22:51;11.70;99.90
14521;DHT22;7347;50.844;4.490;2023-03-16T20:25:21;11.70;99.90
14521;DHT22;7347;50.844;4.490;2023-03-16T20:27:53;11.80;99.90
14521;DHT22;7347;50.844;4.490;2023-03-16T20:30:21;11.80;99.90
14521;DHT22;7347;50.844;4.490;2023-03-16T20:32:49;11.80;99.90
14521;DHT22;7347;50.844;4.490;2023-03-16T20:35:18;11.80;99.90
14521;DHT22;7347;50.844;4.490;2023-03-16T20:37:45;11.70;99.90
14521;DHT22;7347;50.844;4.490;2023-03-16T20:40:13;11.70;99.90
14521;DHT22;7347;50.844;4.490;2023-03-16T20:42:42;11.80;99.90
14521;DHT22;7347;50.844;4.490;2023-03-16T20:45:17;11.80;99.90
14521;DHT22;7347;50.844;4.490;2023-03-16T20:47:45;11.80;99.90
14521;DHT22;7347;50.844;4.490;2023-03-16T20:50:21;11.80;99.90
14521;DHT22;7347;50.844;4.490;2023-03-16T20:52:49;11.90;99.90
14521;DHT22;7347;50.844;4.490;2023-03-16T20:55:17;11.80;99.90
14521;DHT22;7347;50.844;4.490;2023-03-16T20:57:47;11.90;99.90
14521;DHT22;7347;50.844;4.490;2023-03-16T21:00:25;11.90;99.90
14521;DHT22;7347;50.844;4.490;2023-03-16T21:02:54;11.90;99.90
14521;DHT22;7347;50.844;4.490;2023-03-16T21:05:21;11.90;99.90
14521;DHT22;7347;50.844;4.490;2023-03-16T21:07:48;11.90;99.90
14521;DHT22;7347;50.844;4.490;2023-03-16T21:10:16;11.90;99.90
14521;DHT22;7347;50.844;4.490;2023-03-16T21:12:48;11.90;99.90
14521;DHT22;7347;50.844;4.490;2023-03-16T21:15:21;11.90;99.90
14521;DHT22;7347;50.844;4.490;2023-03-16T21:17:53;11.90;99.90
14521;DHT22;7347;50.844;4.490;2023-03-16T21:20:21;12.00;99.90
14521;DHT22;7347;50.844;4.490;2023-03-16T21:22:48;12.00;99.90
14521;DHT22;7347;50.844;4.490;2023-03-16T21:25:18;12.00;99.90
14521;DHT22;7347;50.844;4.490;2023-03-16T21:27:46;12.00;99.90
14521;DHT22;7347;50.844;4.490;2023-03-16T21:30:22;12.00;99.90
14521;DHT22;7347;50.844;4.490;2023-03-16T21:32:50;12.00;99.90
14521;DHT22;7347;50.844;4.490;2023-03-16T21:35:17;12.10;99.90
14521;DHT22;7347;50.844;4.490;2023-03-16T21:37:44;12.10;99.90
14521;DHT22;7347;50.844;4.490;2023-03-16T21:40:16;12.10;99.90
14521;DHT22;7347;50.844;4.490;2023-03-16T21:42:44;12.10;99.90
14521;DHT22;7347;50.844;4.490;2023-03-16T21:45:11;12.00;99.90
14521;DHT22;7347;50.844;4.490;2023-03-16T21:47:40;12.00;99.90
14521;DHT22;7347;50.844;4.490;2023-03-16T21:50:18;12.00;99.90
14521;DHT22;7347;50.844;4.490;2023-03-16T21:52:45;12.10;99.90
14521;DHT22;7347;50.844;4.490;2023-03-16T21:55:18;12.10;99.90
14521;DHT22;7347;50.844;4.490;2023-03-16T21:57:46;12.10;99.90
14521;DHT22;7347;50.844;4.490;2023-03-16T22:00:19;12.20;99.90
14521;DHT22;7347;50.844;4.490;2023-03-16T22:02:50;12.10;99.90
14521;DHT22;7347;50.844;4.490;2023-03-16T22:05:35;12.10;99.90
14521;DHT22;7347;50.844;4.490;2023-03-16T22:08:11;12.20;99.90
14521;DHT22;7347;50.844;4.490;2023-03-16T22:10:39;12.10;99.90
14521;DHT22;7347;50.844;4.490;2023-03-16T22:13:07;12.10;99.90
